sensor_id;sensor_type;location;lat;lon;timestamp;P1;durP1;ratioP1;P2;durP2;ratioP2
16832;SDS011;8533;48.426;10.868;2023-06-04T00:00:50;4.57;;;2.67;;
16832;SDS011;8533;48.426;10.868;2023-06-04T00:03:15;3.43;;;2.43;;
16832;SDS011;8533;48.426;10.868;2023-06-04T00:05:41;4.27;;;2.67;;
16832;SDS011;8533;48.426;10.868;2023-06-04T00:08:06;3.63;;;2.30;;
16832;SDS011;8533;48.426;10.868;2023-06-04T00:10:31;6.20;;;2.40;;
16832;SDS011;8533;48.426;10.868;2023-06-04T00:12:58;3.47;;;2.30;;
16832;SDS011;8533;48.426;10.868;2023-06-04T00:15:24;3.63;;;2.40;;
16832;SDS011;8533;48.426;10.868;2023-06-04T00:17:49;5.90;;;2.47;;
16832;SDS011;8533;48.426;10.868;2023-06-04T00:20:15;5.27;;;2.40;;
16832;SDS011;8533;48.426;10.868;2023-06-04T00:22:42;3.70;;;2.50;;
16832;SDS011;8533;48.426;10.868;2023-06-04T00:25:08;3.77;;;2.40;;
16832;SDS011;8533;48.426;10.868;2023-06-04T00:27:34;3.77;;;2.77;;
16832;SDS011;8533;48.426;10.868;2023-06-04T00:30:00;6.00;;;2.47;;
16832;SDS011;8533;48.426;10.868;2023-06-04T00:32:25;2.60;;;2.40;;
16832;SDS011;8533;48.426;10.868;2023-06-04T00:34:54;6.00;;;2.60;;
16832;SDS011;8533;48.426;10.868;2023-06-04T00:37:21;2.67;;;2.07;;
16832;SDS011;8533;48.426;10.868;2023-06-04T00:39:47;3.60;;;2.40;;
16832;SDS011;8533;48.426;10.868;2023-06-04T00:42:12;3.30;;;2.23;;
16832;SDS011;8533;48.426;10.868;2023-06-04T00:44:38;4.27;;;2.30;;
16832;SDS011;8533;48.426;10.868;2023-06-04T00:47:09;3.73;;;2.60;;
16832;SDS011;8533;48.426;10.868;2023-06-04T00:49:38;4.30;;;2.37;;
16832;SDS011;8533;48.426;10.868;2023-06-04T00:52:04;4.50;;;2.50;;
16832;SDS011;8533;48.426;10.868;2023-06-04T00:54:30;3.90;;;2.23;;
16832;SDS011;8533;48.426;10.868;2023-06-04T00:56:57;6.60;;;2.37;;
16832;SDS011;8533;48.426;10.868;2023-06-04T00:59:23;11.90;;;2.43;;
16832;SDS011;8533;48.426;10.868;2023-06-04T01:02:01;3.90;;;2.80;;
16832;SDS011;8533;48.426;10.868;2023-06-04T01:04:33;5.10;;;2.57;;
16832;SDS011;8533;48.426;10.868;2023-06-04T01:07:03;3.40;;;2.60;;
16832;SDS011;8533;48.426;10.868;2023-06-04T01:09:29;3.57;;;2.20;;
16832;SDS011;8533;48.426;10.868;2023-06-04T01:11:55;3.53;;;2.50;;
16832;SDS011;8533;48.426;10.868;2023-06-04T01:14:26;3.93;;;2.67;;
16832;SDS011;8533;48.426;10.868;2023-06-04T01:19:51;2.23;;;2.03;;
16832;SDS011;8533;48.426;10.868;2023-06-04T01:25:02;4.43;;;2.37;;
16832;SDS011;8533;48.426;10.868;2023-06-04T01:27:29;2.70;;;2.30;;
16832;SDS011;8533;48.426;10.868;2023-06-04T01:29:55;4.33;;;2.60;;
16832;SDS011;8533;48.426;10.868;2023-06-04T01:32:25;4.23;;;2.87;;
16832;SDS011;8533;48.426;10.868;2023-06-04T01:34:51;2.77;;;2.30;;
16832;SDS011;8533;48.426;10.868;2023-06-04T01:37:17;5.13;;;2.20;;
16832;SDS011;8533;48.426;10.868;2023-06-04T01:39:43;5.63;;;2.70;;
16832;SDS011;8533;48.426;10.868;2023-06-04T01:42:08;5.33;;;2.57;;
16832;SDS011;8533;48.426;10.868;2023-06-04T01:44:34;3.23;;;2.60;;
16832;SDS011;8533;48.426;10.868;2023-06-04T01:46:59;3.43;;;2.40;;
16832;SDS011;8533;48.426;10.868;2023-06-04T01:49:25;3.10;;;2.27;;
16832;SDS011;8533;48.426;10.868;2023-06-04T01:51:50;3.57;;;2.60;;
16832;SDS011;8533;48.426;10.868;2023-06-04T01:54:16;3.27;;;2.37;;
16832;SDS011;8533;48.426;10.868;2023-06-04T01:56:41;3.93;;;2.40;;
16832;SDS011;8533;48.426;10.868;2023-06-04T01:59:07;5.30;;;2.50;;
16832;SDS011;8533;48.426;10.868;2023-06-04T02:01:32;2.97;;;2.27;;
16832;SDS011;8533;48.426;10.868;2023-06-04T02:03:58;2.73;;;2.27;;
16832;SDS011;8533;48.426;10.868;2023-06-04T02:06:23;2.43;;;2.23;;
16832;SDS011;8533;48.426;10.868;2023-06-04T02:08:49;5.17;;;2.57;;
16832;SDS011;8533;48.426;10.868;2023-06-04T02:11:15;5.17;;;2.30;;
16832;SDS011;8533;48.426;10.868;2023-06-04T02:13:40;3.47;;;2.27;;
16832;SDS011;8533;48.426;10.868;2023-06-04T02:16:06;4.20;;;2.40;;
16832;SDS011;8533;48.426;10.868;2023-06-04T02:18:31;2.83;;;2.20;;
16832;SDS011;8533;48.426;10.868;2023-06-04T02:20:56;3.50;;;2.30;;
16832;SDS011;8533;48.426;10.868;2023-06-04T02:23:22;4.07;;;2.30;;
16832;SDS011;8533;48.426;10.868;2023-06-04T02:25:48;2.77;;;2.20;;
16832;SDS011;8533;48.426;10.868;2023-06-04T02:28:14;2.90;;;2.40;;
16832;SDS011;8533;48.426;10.868;2023-06-04T02:30:40;3.10;;;2.20;;
16832;SDS011;8533;48.426;10.868;2023-06-04T02:33:06;5.67;;;2.10;;
16832;SDS011;8533;48.426;10.868;2023-06-04T02:35:34;5.80;;;2.47;;
16832;SDS011;8533;48.426;10.868;2023-06-04T02:38:00;3.87;;;2.30;;
16832;SDS011;8533;48.426;10.868;2023-06-04T02:40:25;3.53;;;2.60;;
16832;SDS011;8533;48.426;10.868;2023-06-04T02:42:54;2.33;;;1.80;;
16832;SDS011;8533;48.426;10.868;2023-06-04T02:45:20;3.90;;;2.10;;
16832;SDS011;8533;48.426;10.868;2023-06-04T02:47:46;3.13;;;1.90;;
16832;SDS011;8533;48.426;10.868;2023-06-04T02:50:12;2.77;;;2.30;;
16832;SDS011;8533;48.426;10.868;2023-06-04T02:52:38;3.87;;;2.27;;
16832;SDS011;8533;48.426;10.868;2023-06-04T02:55:05;3.37;;;2.30;;
16832;SDS011;8533;48.426;10.868;2023-06-04T02:57:34;6.20;;;2.43;;
16832;SDS011;8533;48.426;10.868;2023-06-04T03:00:00;2.33;;;1.97;;
16832;SDS011;8533;48.426;10.868;2023-06-04T03:02:33;5.07;;;2.43;;
16832;SDS011;8533;48.426;10.868;2023-06-04T03:04:58;4.03;;;2.23;;
16832;SDS011;8533;48.426;10.868;2023-06-04T03:07:23;3.03;;;1.90;;
16832;SDS011;8533;48.426;10.868;2023-06-04T03:09:49;2.90;;;2.20;;
16832;SDS011;8533;48.426;10.868;2023-06-04T03:12:14;3.57;;;2.40;;
16832;SDS011;8533;48.426;10.868;2023-06-04T03:14:40;2.40;;;2.10;;
16832;SDS011;8533;48.426;10.868;2023-06-04T03:17:05;2.50;;;2.20;;
16832;SDS011;8533;48.426;10.868;2023-06-04T03:19:40;2.60;;;1.97;;
16832;SDS011;8533;48.426;10.868;2023-06-04T03:22:07;2.90;;;2.13;;
16832;SDS011;8533;48.426;10.868;2023-06-04T03:24:37;2.47;;;2.00;;
16832;SDS011;8533;48.426;10.868;2023-06-04T03:27:04;4.83;;;2.03;;
16832;SDS011;8533;48.426;10.868;2023-06-04T03:29:31;6.37;;;2.10;;
16832;SDS011;8533;48.426;10.868;2023-06-04T03:31:57;2.60;;;1.90;;
16832;SDS011;8533;48.426;10.868;2023-06-04T03:34:23;3.10;;;2.30;;
16832;SDS011;8533;48.426;10.868;2023-06-04T03:36:51;3.50;;;2.20;;
16832;SDS011;8533;48.426;10.868;2023-06-04T03:39:17;3.50;;;1.90;;
16832;SDS011;8533;48.426;10.868;2023-06-04T03:41:43;3.40;;;2.13;;
16832;SDS011;8533;48.426;10.868;2023-06-04T03:44:08;2.33;;;1.90;;
16832;SDS011;8533;48.426;10.868;2023-06-04T03:46:33;4.13;;;2.20;;
16832;SDS011;8533;48.426;10.868;2023-06-04T03:48:59;3.07;;;2.20;;
16832;SDS011;8533;48.426;10.868;2023-06-04T03:51:24;5.50;;;2.13;;
16832;SDS011;8533;48.426;10.868;2023-06-04T03:53:50;4.20;;;2.20;;
16832;SDS011;8533;48.426;10.868;2023-06-04T03:56:15;2.33;;;1.80;;
16832;SDS011;8533;48.426;10.868;2023-06-04T03:58:40;2.30;;;1.97;;
16832;SDS011;8533;48.426;10.868;2023-06-04T04:01:06;3.23;;;2.37;;
16832;SDS011;8533;48.426;10.868;2023-06-04T04:03:33;3.53;;;2.13;;
16832;SDS011;8533;48.426;10.868;2023-06-04T04:05:59;2.30;;;2.00;;
16832;SDS011;8533;48.426;10.868;2023-06-04T04:08:25;2.87;;;1.97;;
16832;SDS011;8533;48.426;10.868;2023-06-04T04:10:51;4.03;;;2.07;;
16832;SDS011;8533;48.426;10.868;2023-06-04T04:13:17;3.33;;;2.03;;
16832;SDS011;8533;48.426;10.868;2023-06-04T04:15:43;2.90;;;2.10;;
16832;SDS011;8533;48.426;10.868;2023-06-04T04:18:08;3.40;;;2.33;;
16832;SDS011;8533;48.426;10.868;2023-06-04T04:20:35;3.33;;;2.00;;
16832;SDS011;8533;48.426;10.868;2023-06-04T04:23:00;2.73;;;2.10;;
16832;SDS011;8533;48.426;10.868;2023-06-04T04:25:26;2.73;;;2.00;;
16832;SDS011;8533;48.426;10.868;2023-06-04T04:27:52;2.50;;;2.20;;
16832;SDS011;8533;48.426;10.868;2023-06-04T04:30:17;4.10;;;2.00;;
16832;SDS011;8533;48.426;10.868;2023-06-04T04:32:43;2.03;;;1.80;;
16832;SDS011;8533;48.426;10.868;2023-06-04T04:35:13;2.30;;;2.10;;
16832;SDS011;8533;48.426;10.868;2023-06-04T04:37:39;2.97;;;2.10;;
16832;SDS011;8533;48.426;10.868;2023-06-04T04:40:06;3.57;;;2.17;;
16832;SDS011;8533;48.426;10.868;2023-06-04T04:42:34;3.87;;;1.90;;
16832;SDS011;8533;48.426;10.868;2023-06-04T04:45:00;2.53;;;1.90;;
16832;SDS011;8533;48.426;10.868;2023-06-04T04:47:25;3.23;;;2.27;;
16832;SDS011;8533;48.426;10.868;2023-06-04T04:49:50;4.70;;;1.97;;
16832;SDS011;8533;48.426;10.868;2023-06-04T04:52:16;3.50;;;1.83;;
16832;SDS011;8533;48.426;10.868;2023-06-04T04:54:41;3.97;;;2.13;;
16832;SDS011;8533;48.426;10.868;2023-06-04T04:57:06;3.97;;;2.13;;
16832;SDS011;8533;48.426;10.868;2023-06-04T04:59:32;2.50;;;1.80;;
16832;SDS011;8533;48.426;10.868;2023-06-04T05:01:57;2.73;;;1.97;;
16832;SDS011;8533;48.426;10.868;2023-06-04T05:04:23;5.17;;;2.30;;
16832;SDS011;8533;48.426;10.868;2023-06-04T05:06:48;4.37;;;2.30;;
16832;SDS011;8533;48.426;10.868;2023-06-04T05:09:13;3.30;;;1.83;;
16832;SDS011;8533;48.426;10.868;2023-06-04T05:11:39;5.50;;;2.17;;
16832;SDS011;8533;48.426;10.868;2023-06-04T05:14:04;3.63;;;2.13;;
16832;SDS011;8533;48.426;10.868;2023-06-04T05:16:30;7.30;;;2.30;;
16832;SDS011;8533;48.426;10.868;2023-06-04T05:18:56;1.87;;;1.73;;
16832;SDS011;8533;48.426;10.868;2023-06-04T05:21:21;3.00;;;2.20;;
16832;SDS011;8533;48.426;10.868;2023-06-04T05:23:47;4.37;;;2.10;;
16832;SDS011;8533;48.426;10.868;2023-06-04T05:26:13;4.53;;;2.47;;
16832;SDS011;8533;48.426;10.868;2023-06-04T05:28:39;3.30;;;2.20;;
16832;SDS011;8533;48.426;10.868;2023-06-04T05:31:08;4.47;;;2.30;;
16832;SDS011;8533;48.426;10.868;2023-06-04T05:33:33;2.27;;;1.93;;
16832;SDS011;8533;48.426;10.868;2023-06-04T05:35:58;2.97;;;2.00;;
16832;SDS011;8533;48.426;10.868;2023-06-04T05:38:24;3.07;;;2.47;;
16832;SDS011;8533;48.426;10.868;2023-06-04T05:40:55;3.33;;;2.00;;
16832;SDS011;8533;48.426;10.868;2023-06-04T05:43:20;2.27;;;2.00;;
16832;SDS011;8533;48.426;10.868;2023-06-04T05:45:46;2.63;;;2.20;;
16832;SDS011;8533;48.426;10.868;2023-06-04T05:48:11;4.07;;;2.20;;
16832;SDS011;8533;48.426;10.868;2023-06-04T05:50:37;4.47;;;2.20;;
16832;SDS011;8533;48.426;10.868;2023-06-04T05:53:02;2.80;;;2.10;;
16832;SDS011;8533;48.426;10.868;2023-06-04T05:55:27;2.73;;;2.10;;
16832;SDS011;8533;48.426;10.868;2023-06-04T05:57:54;3.90;;;2.23;;
16832;SDS011;8533;48.426;10.868;2023-06-04T06:00:19;4.57;;;2.37;;
16832;SDS011;8533;48.426;10.868;2023-06-04T06:02:45;3.47;;;2.33;;
16832;SDS011;8533;48.426;10.868;2023-06-04T06:05:13;5.00;;;2.30;;
16832;SDS011;8533;48.426;10.868;2023-06-04T06:07:39;3.47;;;2.30;;
16832;SDS011;8533;48.426;10.868;2023-06-04T06:10:05;2.20;;;2.00;;
16832;SDS011;8533;48.426;10.868;2023-06-04T06:12:31;2.83;;;2.27;;
16832;SDS011;8533;48.426;10.868;2023-06-04T06:14:56;3.27;;;2.23;;
16832;SDS011;8533;48.426;10.868;2023-06-04T06:17:21;3.00;;;2.13;;
16832;SDS011;8533;48.426;10.868;2023-06-04T06:19:47;2.80;;;2.30;;
16832;SDS011;8533;48.426;10.868;2023-06-04T06:22:13;4.03;;;2.57;;
16832;SDS011;8533;48.426;10.868;2023-06-04T06:24:39;3.27;;;2.30;;
16832;SDS011;8533;48.426;10.868;2023-06-04T06:27:04;4.80;;;2.37;;
16832;SDS011;8533;48.426;10.868;2023-06-04T06:29:30;4.23;;;2.30;;
16832;SDS011;8533;48.426;10.868;2023-06-04T06:31:55;2.90;;;2.23;;
16832;SDS011;8533;48.426;10.868;2023-06-04T06:34:20;4.73;;;2.80;;
16832;SDS011;8533;48.426;10.868;2023-06-04T06:36:46;2.57;;;2.30;;
16832;SDS011;8533;48.426;10.868;2023-06-04T06:39:12;3.13;;;2.20;;
16832;SDS011;8533;48.426;10.868;2023-06-04T06:41:37;4.57;;;2.27;;
16832;SDS011;8533;48.426;10.868;2023-06-04T06:44:03;4.03;;;2.40;;
16832;SDS011;8533;48.426;10.868;2023-06-04T06:46:29;5.43;;;2.50;;
16832;SDS011;8533;48.426;10.868;2023-06-04T06:48:55;4.13;;;2.60;;
16832;SDS011;8533;48.426;10.868;2023-06-04T06:51:20;3.27;;;2.40;;
16832;SDS011;8533;48.426;10.868;2023-06-04T06:53:45;3.20;;;2.63;;
16832;SDS011;8533;48.426;10.868;2023-06-04T06:56:11;7.63;;;2.70;;
16832;SDS011;8533;48.426;10.868;2023-06-04T06:58:36;3.80;;;2.40;;
16832;SDS011;8533;48.426;10.868;2023-06-04T07:01:01;3.47;;;2.67;;
16832;SDS011;8533;48.426;10.868;2023-06-04T07:03:27;3.60;;;2.37;;
16832;SDS011;8533;48.426;10.868;2023-06-04T07:05:53;3.40;;;2.27;;
16832;SDS011;8533;48.426;10.868;2023-06-04T07:08:19;3.07;;;2.50;;
16832;SDS011;8533;48.426;10.868;2023-06-04T07:10:44;3.73;;;2.80;;
16832;SDS011;8533;48.426;10.868;2023-06-04T07:13:10;3.27;;;2.50;;
16832;SDS011;8533;48.426;10.868;2023-06-04T07:15:36;4.17;;;2.90;;
16832;SDS011;8533;48.426;10.868;2023-06-04T07:18:01;4.93;;;2.50;;
16832;SDS011;8533;48.426;10.868;2023-06-04T07:20:26;3.70;;;2.90;;
16832;SDS011;8533;48.426;10.868;2023-06-04T07:22:52;3.30;;;2.40;;
16832;SDS011;8533;48.426;10.868;2023-06-04T07:25:17;4.13;;;2.60;;
16832;SDS011;8533;48.426;10.868;2023-06-04T07:27:42;5.57;;;2.53;;
16832;SDS011;8533;48.426;10.868;2023-06-04T07:30:08;5.27;;;2.43;;
16832;SDS011;8533;48.426;10.868;2023-06-04T07:32:34;3.40;;;2.70;;
16832;SDS011;8533;48.426;10.868;2023-06-04T07:34:59;3.57;;;2.60;;
16832;SDS011;8533;48.426;10.868;2023-06-04T07:37:25;5.00;;;2.53;;
16832;SDS011;8533;48.426;10.868;2023-06-04T07:39:50;5.93;;;2.70;;
16832;SDS011;8533;48.426;10.868;2023-06-04T07:42:15;6.50;;;2.47;;
16832;SDS011;8533;48.426;10.868;2023-06-04T07:44:40;4.93;;;2.30;;
16832;SDS011;8533;48.426;10.868;2023-06-04T07:47:06;3.10;;;2.60;;
16832;SDS011;8533;48.426;10.868;2023-06-04T07:49:31;5.87;;;2.53;;
16832;SDS011;8533;48.426;10.868;2023-06-04T07:51:56;8.57;;;3.00;;
16832;SDS011;8533;48.426;10.868;2023-06-04T07:54:22;3.53;;;2.80;;
16832;SDS011;8533;48.426;10.868;2023-06-04T07:56:48;5.40;;;2.70;;
16832;SDS011;8533;48.426;10.868;2023-06-04T07:59:13;3.53;;;2.57;;
16832;SDS011;8533;48.426;10.868;2023-06-04T08:01:38;3.00;;;2.57;;
16832;SDS011;8533;48.426;10.868;2023-06-04T08:04:04;3.33;;;2.57;;
16832;SDS011;8533;48.426;10.868;2023-06-04T08:06:29;3.57;;;2.73;;
16832;SDS011;8533;48.426;10.868;2023-06-04T08:08:55;3.20;;;2.60;;
16832;SDS011;8533;48.426;10.868;2023-06-04T08:11:20;3.70;;;2.83;;
16832;SDS011;8533;48.426;10.868;2023-06-04T08:13:47;4.43;;;2.43;;
16832;SDS011;8533;48.426;10.868;2023-06-04T08:16:13;3.30;;;2.60;;
16832;SDS011;8533;48.426;10.868;2023-06-04T08:18:38;3.53;;;2.70;;
16832;SDS011;8533;48.426;10.868;2023-06-04T08:21:04;3.00;;;2.50;;
16832;SDS011;8533;48.426;10.868;2023-06-04T08:23:31;3.40;;;2.90;;
16832;SDS011;8533;48.426;10.868;2023-06-04T08:25:56;3.60;;;2.53;;
16832;SDS011;8533;48.426;10.868;2023-06-04T08:28:21;3.47;;;2.40;;
16832;SDS011;8533;48.426;10.868;2023-06-04T08:30:47;2.90;;;2.47;;
16832;SDS011;8533;48.426;10.868;2023-06-04T08:33:12;3.13;;;2.50;;
16832;SDS011;8533;48.426;10.868;2023-06-04T08:35:37;7.70;;;2.80;;
16832;SDS011;8533;48.426;10.868;2023-06-04T08:38:02;9.07;;;2.83;;
16832;SDS011;8533;48.426;10.868;2023-06-04T08:40:28;3.40;;;2.70;;
16832;SDS011;8533;48.426;10.868;2023-06-04T08:42:55;3.77;;;2.67;;
16832;SDS011;8533;48.426;10.868;2023-06-04T08:45:23;4.30;;;2.67;;
16832;SDS011;8533;48.426;10.868;2023-06-04T08:47:50;3.73;;;2.50;;
16832;SDS011;8533;48.426;10.868;2023-06-04T08:50:22;4.13;;;2.40;;
16832;SDS011;8533;48.426;10.868;2023-06-04T08:52:52;6.67;;;2.77;;
16832;SDS011;8533;48.426;10.868;2023-06-04T08:55:19;4.73;;;2.60;;
16832;SDS011;8533;48.426;10.868;2023-06-04T08:57:45;3.73;;;2.60;;
16832;SDS011;8533;48.426;10.868;2023-06-04T09:00:13;6.40;;;2.63;;
16832;SDS011;8533;48.426;10.868;2023-06-04T09:02:39;4.10;;;2.50;;
16832;SDS011;8533;48.426;10.868;2023-06-04T09:05:04;3.50;;;2.43;;
16832;SDS011;8533;48.426;10.868;2023-06-04T09:07:38;5.57;;;2.40;;
16832;SDS011;8533;48.426;10.868;2023-06-04T09:10:06;4.27;;;2.40;;
16832;SDS011;8533;48.426;10.868;2023-06-04T09:12:33;5.60;;;2.83;;
16832;SDS011;8533;48.426;10.868;2023-06-04T09:15:02;3.47;;;2.47;;
16832;SDS011;8533;48.426;10.868;2023-06-04T09:17:27;5.07;;;2.90;;
16832;SDS011;8533;48.426;10.868;2023-06-04T09:19:53;3.27;;;2.50;;
16832;SDS011;8533;48.426;10.868;2023-06-04T09:22:18;3.43;;;2.57;;
16832;SDS011;8533;48.426;10.868;2023-06-04T09:24:47;2.93;;;2.43;;
16832;SDS011;8533;48.426;10.868;2023-06-04T09:27:18;4.33;;;2.73;;
16832;SDS011;8533;48.426;10.868;2023-06-04T09:29:50;5.20;;;3.07;;
16832;SDS011;8533;48.426;10.868;2023-06-04T09:32:27;3.07;;;2.23;;
16832;SDS011;8533;48.426;10.868;2023-06-04T09:35:10;4.03;;;2.60;;
16832;SDS011;8533;48.426;10.868;2023-06-04T09:38:04;3.47;;;2.40;;
16832;SDS011;8533;48.426;10.868;2023-06-04T09:40:34;6.07;;;2.80;;
16832;SDS011;8533;48.426;10.868;2023-06-04T09:43:01;4.07;;;2.43;;
16832;SDS011;8533;48.426;10.868;2023-06-04T09:45:27;5.43;;;2.60;;
16832;SDS011;8533;48.426;10.868;2023-06-04T09:47:57;6.27;;;2.70;;
16832;SDS011;8533;48.426;10.868;2023-06-04T09:50:41;3.00;;;2.70;;
16832;SDS011;8533;48.426;10.868;2023-06-04T09:53:13;4.07;;;2.90;;
16832;SDS011;8533;48.426;10.868;2023-06-04T09:55:40;4.13;;;2.50;;
16832;SDS011;8533;48.426;10.868;2023-06-04T09:58:06;3.30;;;2.50;;
16832;SDS011;8533;48.426;10.868;2023-06-04T10:00:32;5.53;;;2.70;;
16832;SDS011;8533;48.426;10.868;2023-06-04T10:02:58;3.97;;;2.90;;
16832;SDS011;8533;48.426;10.868;2023-06-04T10:05:27;3.53;;;2.53;;
16832;SDS011;8533;48.426;10.868;2023-06-04T10:07:56;5.23;;;2.50;;
16832;SDS011;8533;48.426;10.868;2023-06-04T10:10:25;6.40;;;2.80;;
16832;SDS011;8533;48.426;10.868;2023-06-04T10:12:55;3.47;;;2.67;;
16832;SDS011;8533;48.426;10.868;2023-06-04T10:15:27;5.33;;;2.77;;
16832;SDS011;8533;48.426;10.868;2023-06-04T10:17:53;3.67;;;3.00;;
16832;SDS011;8533;48.426;10.868;2023-06-04T10:20:20;3.60;;;2.93;;
16832;SDS011;8533;48.426;10.868;2023-06-04T10:22:46;4.60;;;2.80;;
16832;SDS011;8533;48.426;10.868;2023-06-04T10:25:13;2.80;;;2.60;;
16832;SDS011;8533;48.426;10.868;2023-06-04T10:27:39;5.97;;;3.20;;
16832;SDS011;8533;48.426;10.868;2023-06-04T10:30:05;4.40;;;2.97;;
16832;SDS011;8533;48.426;10.868;2023-06-04T10:32:30;4.33;;;3.00;;
16832;SDS011;8533;48.426;10.868;2023-06-04T10:34:56;4.63;;;3.30;;
16832;SDS011;8533;48.426;10.868;2023-06-04T10:37:23;6.77;;;3.80;;
16832;SDS011;8533;48.426;10.868;2023-06-04T10:39:53;5.27;;;3.70;;
16832;SDS011;8533;48.426;10.868;2023-06-04T10:42:19;5.37;;;3.23;;
16832;SDS011;8533;48.426;10.868;2023-06-04T10:44:46;4.63;;;3.33;;
16832;SDS011;8533;48.426;10.868;2023-06-04T10:47:23;6.87;;;3.57;;
16832;SDS011;8533;48.426;10.868;2023-06-04T10:49:54;5.43;;;3.63;;
16832;SDS011;8533;48.426;10.868;2023-06-04T10:52:23;7.80;;;3.50;;
16832;SDS011;8533;48.426;10.868;2023-06-04T10:54:48;6.40;;;3.70;;
16832;SDS011;8533;48.426;10.868;2023-06-04T10:57:14;6.20;;;3.47;;
16832;SDS011;8533;48.426;10.868;2023-06-04T10:59:42;4.87;;;3.00;;
16832;SDS011;8533;48.426;10.868;2023-06-04T11:02:18;5.07;;;2.83;;
16832;SDS011;8533;48.426;10.868;2023-06-04T11:04:43;5.93;;;3.10;;
16832;SDS011;8533;48.426;10.868;2023-06-04T11:07:09;4.13;;;3.10;;
16832;SDS011;8533;48.426;10.868;2023-06-04T11:09:35;3.40;;;3.00;;
16832;SDS011;8533;48.426;10.868;2023-06-04T11:12:01;4.23;;;3.30;;
16832;SDS011;8533;48.426;10.868;2023-06-04T11:14:29;3.80;;;3.00;;
16832;SDS011;8533;48.426;10.868;2023-06-04T11:16:54;4.37;;;3.37;;
16832;SDS011;8533;48.426;10.868;2023-06-04T11:19:20;6.30;;;3.27;;
16832;SDS011;8533;48.426;10.868;2023-06-04T11:21:45;5.17;;;3.50;;
16832;SDS011;8533;48.426;10.868;2023-06-04T11:24:11;5.47;;;3.47;;
16832;SDS011;8533;48.426;10.868;2023-06-04T11:26:37;6.00;;;3.40;;
16832;SDS011;8533;48.426;10.868;2023-06-04T11:29:06;6.57;;;3.80;;
16832;SDS011;8533;48.426;10.868;2023-06-04T11:31:46;4.63;;;3.40;;
16832;SDS011;8533;48.426;10.868;2023-06-04T11:34:22;5.10;;;3.70;;
16832;SDS011;8533;48.426;10.868;2023-06-04T11:36:50;5.00;;;3.37;;
16832;SDS011;8533;48.426;10.868;2023-06-04T11:39:18;4.23;;;3.27;;
16832;SDS011;8533;48.426;10.868;2023-06-04T11:41:43;3.87;;;3.03;;
16832;SDS011;8533;48.426;10.868;2023-06-04T11:44:09;4.27;;;3.20;;
16832;SDS011;8533;48.426;10.868;2023-06-04T11:46:39;5.70;;;3.60;;
16832;SDS011;8533;48.426;10.868;2023-06-04T11:49:05;5.20;;;3.40;;
16832;SDS011;8533;48.426;10.868;2023-06-04T11:51:31;5.30;;;3.50;;
16832;SDS011;8533;48.426;10.868;2023-06-04T11:53:58;4.30;;;3.33;;
16832;SDS011;8533;48.426;10.868;2023-06-04T11:56:24;4.70;;;3.60;;
16832;SDS011;8533;48.426;10.868;2023-06-04T11:58:50;4.03;;;3.20;;
16832;SDS011;8533;48.426;10.868;2023-06-04T12:01:16;3.57;;;2.93;;
16832;SDS011;8533;48.426;10.868;2023-06-04T12:03:42;5.73;;;3.43;;
16832;SDS011;8533;48.426;10.868;2023-06-04T12:06:15;6.37;;;3.30;;
16832;SDS011;8533;48.426;10.868;2023-06-04T12:08:51;4.33;;;3.27;;
16832;SDS011;8533;48.426;10.868;2023-06-04T12:13:54;3.30;;;3.00;;
16832;SDS011;8533;48.426;10.868;2023-06-04T12:16:20;3.83;;;3.07;;
16832;SDS011;8533;48.426;10.868;2023-06-04T12:18:46;5.50;;;3.63;;
16832;SDS011;8533;48.426;10.868;2023-06-04T12:21:16;4.60;;;3.40;;
16832;SDS011;8533;48.426;10.868;2023-06-04T12:23:52;5.67;;;3.30;;
16832;SDS011;8533;48.426;10.868;2023-06-04T12:26:20;4.70;;;3.50;;
16832;SDS011;8533;48.426;10.868;2023-06-04T12:29:02;5.10;;;3.30;;
16832;SDS011;8533;48.426;10.868;2023-06-04T12:31:32;4.57;;;3.33;;
16832;SDS011;8533;48.426;10.868;2023-06-04T12:33:59;5.97;;;3.57;;
16832;SDS011;8533;48.426;10.868;2023-06-04T12:36:25;5.87;;;3.87;;
16832;SDS011;8533;48.426;10.868;2023-06-04T12:38:51;3.97;;;2.97;;
16832;SDS011;8533;48.426;10.868;2023-06-04T12:41:16;5.77;;;3.17;;
16832;SDS011;8533;48.426;10.868;2023-06-04T12:43:41;5.00;;;3.87;;
16832;SDS011;8533;48.426;10.868;2023-06-04T12:46:07;4.47;;;3.03;;
16832;SDS011;8533;48.426;10.868;2023-06-04T12:48:32;5.77;;;3.73;;
16832;SDS011;8533;48.426;10.868;2023-06-04T12:50:58;5.10;;;3.40;;
16832;SDS011;8533;48.426;10.868;2023-06-04T12:53:23;4.63;;;3.57;;
16832;SDS011;8533;48.426;10.868;2023-06-04T12:55:49;3.50;;;3.10;;
16832;SDS011;8533;48.426;10.868;2023-06-04T12:58:15;4.80;;;3.40;;
16832;SDS011;8533;48.426;10.868;2023-06-04T13:00:40;4.57;;;3.40;;
16832;SDS011;8533;48.426;10.868;2023-06-04T13:03:05;4.63;;;3.50;;
16832;SDS011;8533;48.426;10.868;2023-06-04T13:05:31;5.20;;;3.67;;
16832;SDS011;8533;48.426;10.868;2023-06-04T13:07:56;4.20;;;3.37;;
16832;SDS011;8533;48.426;10.868;2023-06-04T13:10:21;3.63;;;3.20;;
16832;SDS011;8533;48.426;10.868;2023-06-04T13:12:46;4.47;;;3.67;;
16832;SDS011;8533;48.426;10.868;2023-06-04T13:15:12;4.20;;;3.40;;
16832;SDS011;8533;48.426;10.868;2023-06-04T13:17:37;4.63;;;3.70;;
16832;SDS011;8533;48.426;10.868;2023-06-04T13:20:02;5.07;;;3.10;;
16832;SDS011;8533;48.426;10.868;2023-06-04T13:22:28;4.90;;;3.40;;
16832;SDS011;8533;48.426;10.868;2023-06-04T13:24:53;6.10;;;3.37;;
16832;SDS011;8533;48.426;10.868;2023-06-04T13:27:19;6.10;;;3.70;;
16832;SDS011;8533;48.426;10.868;2023-06-04T13:29:44;4.17;;;3.40;;
16832;SDS011;8533;48.426;10.868;2023-06-04T13:32:09;4.80;;;3.30;;
16832;SDS011;8533;48.426;10.868;2023-06-04T13:34:35;5.07;;;3.50;;
16832;SDS011;8533;48.426;10.868;2023-06-04T13:37:00;5.67;;;3.90;;
16832;SDS011;8533;48.426;10.868;2023-06-04T13:39:26;6.83;;;3.50;;
16832;SDS011;8533;48.426;10.868;2023-06-04T13:41:51;4.50;;;3.47;;
16832;SDS011;8533;48.426;10.868;2023-06-04T13:44:17;4.27;;;3.27;;
16832;SDS011;8533;48.426;10.868;2023-06-04T13:46:42;5.23;;;3.33;;
16832;SDS011;8533;48.426;10.868;2023-06-04T13:49:07;5.23;;;3.50;;
16832;SDS011;8533;48.426;10.868;2023-06-04T13:51:33;4.43;;;3.77;;
16832;SDS011;8533;48.426;10.868;2023-06-04T13:53:58;5.40;;;3.53;;
16832;SDS011;8533;48.426;10.868;2023-06-04T13:56:23;6.67;;;3.10;;
16832;SDS011;8533;48.426;10.868;2023-06-04T13:58:50;6.03;;;3.50;;
16832;SDS011;8533;48.426;10.868;2023-06-04T14:01:15;4.03;;;3.00;;
16832;SDS011;8533;48.426;10.868;2023-06-04T14:03:41;5.60;;;3.27;;
16832;SDS011;8533;48.426;10.868;2023-06-04T14:06:07;5.70;;;4.27;;
16832;SDS011;8533;48.426;10.868;2023-06-04T14:08:32;3.57;;;3.00;;
16832;SDS011;8533;48.426;10.868;2023-06-04T14:10:58;6.10;;;3.13;;
16832;SDS011;8533;48.426;10.868;2023-06-04T14:13:23;5.50;;;3.43;;
16832;SDS011;8533;48.426;10.868;2023-06-04T14:15:48;6.47;;;3.47;;
16832;SDS011;8533;48.426;10.868;2023-06-04T14:18:13;4.53;;;3.60;;
16832;SDS011;8533;48.426;10.868;2023-06-04T14:20:39;7.30;;;3.10;;
16832;SDS011;8533;48.426;10.868;2023-06-04T14:23:05;5.63;;;3.70;;
16832;SDS011;8533;48.426;10.868;2023-06-04T14:25:30;4.20;;;3.23;;
16832;SDS011;8533;48.426;10.868;2023-06-04T14:27:57;5.53;;;3.23;;
16832;SDS011;8533;48.426;10.868;2023-06-04T14:30:22;4.63;;;3.53;;
16832;SDS011;8533;48.426;10.868;2023-06-04T14:32:48;5.37;;;3.23;;
16832;SDS011;8533;48.426;10.868;2023-06-04T14:35:13;3.67;;;2.90;;
16832;SDS011;8533;48.426;10.868;2023-06-04T14:37:38;6.30;;;3.23;;
16832;SDS011;8533;48.426;10.868;2023-06-04T14:40:04;4.87;;;3.43;;
16832;SDS011;8533;48.426;10.868;2023-06-04T14:42:30;4.53;;;3.37;;
16832;SDS011;8533;48.426;10.868;2023-06-04T14:44:55;7.70;;;3.40;;
16832;SDS011;8533;48.426;10.868;2023-06-04T14:47:20;12.13;;;3.30;;
16832;SDS011;8533;48.426;10.868;2023-06-04T14:49:45;5.77;;;3.77;;
16832;SDS011;8533;48.426;10.868;2023-06-04T14:52:11;4.77;;;3.07;;